Canaan, Connecticut
Current Conditions -  °F | °C
As of 12:54 PM on Saturday 25 Oct 2014 (Local Time) from KPSF Reporting Station
Few Clouds Few Clouds  
Wind Chill: 13°   Ceiling: Unl
Heat Index: 13°   Visibility: 10mi
Dew Point:   Wind: 12mph
Humidity: 67%   Direction: 280°W
Pressure: 29.71"   Gusts: NA
Location:  42.03°N, 73.33°W
Report Text: KPSF 251654Z AUTO 28010KT 10SM FEW024 13/07 A2971 RMK AO2 SLP053 T01280067
Loading
Personal Weather Stations






























Interactive Weather Map
Tropical Storm Tracking
New forecast layout! Learn more

10-Day Weather Forecast

Advertisements
Track Severe Weather on mobile